Time;durP1;ratioP1;P1;durP2;ratioP2;P2;SDS_P1;SDS_P2;PMS_P1;PMS_P2;Temp;Humidity;BMP_temperature;BMP_pressure;BME280_temperature;BME280_humidity;BME280_pressure;Samples;Min_cycle;Max_cycle;Signal;HPM_P1;HPM_P2
2022/10/02 00:02:34;;;;;;;0.50;0.50;;;10.80;99.90;;;;;;5073702;28;20431;-75
2022/10/02 00:05:19;;;;;;;1.20;0.32;;;10.80;99.90;;;;;;5011251;28;20582;-76
2022/10/02 00:07:54;;;;;;;0.30;0.20;;;10.80;99.90;;;;;;5011033;28;20441;-76
2022/10/02 00:10:37;;;;;;;1.10;0.30;;;10.90;99.90;;;;;;5011489;28;20495;-76
2022/10/02 00:13:11;;;;;;;1.70;0.55;;;11.00;99.90;;;;;;5010968;28;20428;-76
2022/10/02 00:15:41;;;;;;;0.30;0.30;;;10.90;99.90;;;;;;5011413;28;20435;-75
2022/10/02 00:18:14;;;;;;;0.30;0.30;;;10.90;99.90;;;;;;5011308;28;20443;-75
2022/10/02 00:21:07;;;;;;;0.20;0.20;;;10.90;99.90;;;;;;4994886;28;20437;-75
2022/10/02 00:23:48;;;;;;;0.30;0.30;;;10.90;99.90;;;;;;5010905;28;20445;-76
2022/10/02 00:26:22;;;;;;;1.35;0.30;;;10.90;99.90;;;;;;5011308;28;20440;-75
2022/10/02 00:28:56;;;;;;;0.20;0.20;;;10.90;99.90;;;;;;5010968;28;20437;-76
2022/10/02 00:31:41;;;;;;;0.20;0.20;;;10.90;99.90;;;;;;5010636;28;20464;-76
2022/10/02 00:34:29;;;;;;;0.17;0.17;;;10.90;99.90;;;;;;4994569;28;20487;-76
2022/10/02 00:37:05;;;;;;;1.60;0.30;;;10.90;99.90;;;;;;5010995;28;20870;-76
2022/10/02 00:39:50;;;;;;;0.55;0.25;;;10.90;99.90;;;;;;5056221;28;20454;-75
2022/10/02 00:42:23;;;;;;;0.80;0.40;;;10.90;99.90;;;;;;5072750;28;20438;-76
2022/10/02 00:45:21;;;;;;;0.40;0.40;;;10.90;99.90;;;;;;5072575;28;20431;-75
2022/10/02 00:47:56;;;;;;;0.30;0.30;;;10.90;99.90;;;;;;5072735;28;21055;-75
2022/10/02 00:50:47;;;;;;;0.20;0.20;;;10.90;99.90;;;;;;5072909;28;20427;-76
2022/10/02 00:53:35;;;;;;;0.80;0.40;;;10.80;99.90;;;;;;5070646;28;20431;-76
2022/10/02 00:56:26;;;;;;;0.40;0.40;;;10.80;99.90;;;;;;5052064;28;20437;-76
2022/10/02 00:59:06;;;;;;;0.20;0.20;;;10.80;99.90;;;;;;5063419;28;20435;-75
2022/10/02 01:01:42;;;;;;;0.95;0.30;;;10.80;99.90;;;;;;5072407;28;20467;-76
2022/10/02 01:04:37;;;;;;;2.97;0.52;;;10.90;99.90;;;;;;5071884;28;20481;-76
2022/10/02 01:07:13;;;;;;;0.40;0.40;;;10.90;99.90;;;;;;5072076;28;20427;-75
2022/10/02 01:09:40;;;;;;;0.50;0.45;;;10.90;99.90;;;;;;5071914;28;20432;-76
2022/10/02 01:12:07;;;;;;;0.20;0.20;;;10.90;99.90;;;;;;5072732;28;20457;-76
2022/10/02 01:14:39;;;;;;;1.20;0.30;;;10.90;99.90;;;;;;5072178;28;20917;-76
2022/10/02 01:17:21;;;;;;;0.17;0.17;;;11.00;99.90;;;;;;5073079;28;20466;-76
2022/10/02 01:19:49;;;;;;;0.47;0.38;;;11.00;99.90;;;;;;5071462;28;20439;-77
2022/10/02 01:22:40;;;;;;;0.80;0.30;;;11.00;99.90;;;;;;5071461;28;20457;-75
2022/10/02 01:25:07;;;;;;;0.60;0.20;;;11.00;99.90;;;;;;5071277;28;20877;-75
2022/10/02 01:27:35;;;;;;;0.20;0.20;;;11.00;99.90;;;;;;5071014;28;20432;-75
2022/10/02 01:30:17;;;;;;;0.90;0.30;;;11.00;99.90;;;;;;5070991;28;20433;-75
2022/10/02 01:32:51;;;;;;;0.40;0.40;;;11.00;99.90;;;;;;5071027;28;20470;-75
2022/10/02 01:35:21;;;;;;;0.70;0.22;;;11.00;99.90;;;;;;5071127;28;20453;-75
2022/10/02 01:37:49;;;;;;;0.43;0.43;;;11.00;99.90;;;;;;5071351;28;20489;-76
2022/10/02 01:40:37;;;;;;;0.85;0.45;;;11.10;99.90;;;;;;5071212;28;20493;-75
2022/10/02 01:43:07;;;;;;;0.30;0.30;;;11.10;99.90;;;;;;5070871;28;20484;-75
2022/10/02 01:45:58;;;;;;;0.40;0.40;;;11.10;99.90;;;;;;5071222;28;20929;-75
2022/10/02 01:48:40;;;;;;;0.20;0.20;;;11.10;99.90;;;;;;5071348;28;20488;-75
2022/10/02 01:51:25;;;;;;;0.20;0.20;;;11.10;99.90;;;;;;5070269;28;20480;-75
2022/10/02 01:54:11;;;;;;;0.25;0.25;;;11.10;99.90;;;;;;5069903;28;20450;-75
2022/10/02 01:57:00;;;;;;;1.60;0.50;;;11.20;99.90;;;;;;5071290;28;20427;-75
2022/10/02 01:59:50;;;;;;;1.30;0.20;;;11.10;99.90;;;;;;5070497;28;20435;-76
2022/10/02 02:02:30;;;;;;;3.78;0.30;;;11.10;99.90;;;;;;5066979;28;20967;-76
2022/10/02 02:05:07;;;;;;;0.30;0.30;;;11.20;99.90;;;;;;5070249;28;20428;-75
2022/10/02 02:07:43;;;;;;;0.10;0.10;;;11.30;99.90;;;;;;5071418;28;20489;-76
2022/10/02 02:10:33;;;;;;;0.73;0.40;;;11.40;99.90;;;;;;5071063;28;20435;-77
2022/10/02 02:13:17;;;;;;;3.40;0.25;;;11.50;99.90;;;;;;5070731;28;20445;-76
2022/10/02 02:16:00;;;;;;;0.68;0.30;;;11.60;99.90;;;;;;5071643;28;20481;-78
2022/10/02 02:18:49;;;;;;;0.65;0.20;;;11.70;99.90;;;;;;5071367;28;20427;-77
2022/10/02 02:21:28;;;;;;;0.40;0.30;;;11.80;99.90;;;;;;5071643;28;20480;-78
2022/10/02 02:23:58;;;;;;;2.42;0.25;;;11.80;99.90;;;;;;5070966;28;20423;-76
2022/10/02 02:26:27;;;;;;;0.28;0.28;;;11.90;99.90;;;;;;5071508;28;20880;-77
2022/10/02 02:29:00;;;;;;;1.50;0.10;;;11.90;99.90;;;;;;5071587;28;20431;-76
2022/10/02 02:31:33;;;;;;;0.20;0.20;;;11.90;99.90;;;;;;5075784;28;20484;-78
2022/10/02 02:34:06;;;;;;;0.50;0.40;;;11.90;99.90;;;;;;5075669;28;20850;-78
2022/10/02 02:36:41;;;;;;;4.00;0.30;;;11.90;99.90;;;;;;5074950;28;20423;-75
2022/10/02 02:39:17;;;;;;;1.10;0.30;;;12.10;99.90;;;;;;5075154;28;20423;-77
2022/10/02 02:41:50;;;;;;;0.20;0.20;;;12.10;99.90;;;;;;5075758;28;20438;-76
2022/10/02 02:44:34;;;;;;;0.35;0.35;;;12.10;99.90;;;;;;5075013;28;20431;-75
2022/10/02 02:47:12;;;;;;;1.30;0.30;;;12.20;99.90;;;;;;5073789;28;20440;-75
2022/10/02 02:49:59;;;;;;;1.60;0.55;;;12.00;99.90;;;;;;5074968;28;20460;-76
2022/10/02 02:52:46;;;;;;;0.30;0.30;;;12.00;99.90;;;;;;5075041;28;20424;-75
2022/10/02 02:55:33;;;;;;;0.20;0.20;;;11.90;99.90;;;;;;5074092;28;20484;-75
2022/10/02 02:58:03;;;;;;;0.30;0.30;;;11.90;99.90;;;;;;5074178;28;20489;-75
2022/10/02 03:00:30;;;;;;;0.27;0.27;;;11.80;99.90;;;;;;5074019;28;20488;-76
2022/10/02 03:02:57;;;;;;;0.98;0.50;;;11.80;99.90;;;;;;5074585;28;20870;-75
2022/10/02 03:05:25;;;;;;;0.28;0.28;;;11.80;99.90;;;;;;5074684;28;20481;-76
2022/10/02 03:08:02;;;;;;;0.17;0.17;;;11.90;99.90;;;;;;5074691;28;20435;-75
2022/10/02 03:10:47;;;;;;;0.10;0.10;;;11.80;99.90;;;;;;5074186;28;20428;-75
2022/10/02 03:13:17;;;;;;;0.70;0.30;;;11.80;99.90;;;;;;5073645;28;20443;-75
2022/10/02 03:16:15;;;;;;;0.40;0.20;;;11.80;99.90;;;;;;5074559;28;20451;-77
2022/10/02 03:19:06;;;;;;;0.93;0.43;;;11.80;99.90;;;;;;5047872;28;20961;-75
2022/10/02 03:21:44;;;;;;;3.10;0.60;;;11.80;99.90;;;;;;5072903;28;20435;-74
2022/10/02 03:24:20;;;;;;;2.00;0.38;;;11.80;99.90;;;;;;5073176;28;20432;-75
2022/10/02 03:27:11;;;;;;;0.90;0.30;;;11.80;99.90;;;;;;5073484;28;20473;-75
2022/10/02 03:29:55;;;;;;;0.20;0.20;;;11.80;99.90;;;;;;5073624;28;20923;-75
2022/10/02 03:32:23;;;;;;;0.40;0.40;;;11.80;99.90;;;;;;5073309;28;20424;-75
2022/10/02 03:34:52;;;;;;;0.10;0.10;;;11.80;99.90;;;;;;5073292;28;20778;-74
2022/10/02 03:37:20;;;;;;;1.90;0.40;;;11.80;99.90;;;;;;5073236;28;20463;-75
2022/10/02 03:39:48;;;;;;;0.40;0.20;;;11.80;99.90;;;;;;5072750;28;20516;-74
2022/10/02 03:42:24;;;;;;;2.60;0.57;;;11.80;99.90;;;;;;5072444;28;20887;-74
2022/10/02 03:44:52;;;;;;;0.20;0.20;;;11.90;99.90;;;;;;5072363;28;20431;-76
2022/10/02 03:47:18;;;;;;;0.40;0.40;;;11.90;99.90;;;;;;5073134;28;20459;-75
2022/10/02 03:49:45;;;;;;;0.22;0.22;;;11.90;99.90;;;;;;5073006;28;20522;-75
2022/10/02 03:52:16;;;;;;;1.98;0.30;;;11.90;99.90;;;;;;5072188;28;20571;-75
2022/10/02 03:54:44;;;;;;;0.30;0.30;;;11.90;99.90;;;;;;5071897;28;20678;-76
2022/10/02 03:57:18;;;;;;;0.60;0.30;;;11.90;99.90;;;;;;5073152;28;20415;-75
2022/10/02 04:00:11;;;;;;;1.40;0.40;;;11.90;99.90;;;;;;5074452;28;20428;-75
2022/10/02 04:03:06;;;;;;;0.83;0.40;;;12.00;99.90;;;;;;5073779;28;20427;-76
2022/10/02 04:05:35;;;;;;;2.63;0.45;;;12.00;99.90;;;;;;5068155;28;20431;-75
2022/10/02 04:08:17;;;;;;;0.75;0.55;;;12.00;99.90;;;;;;5072815;28;20427;-76
2022/10/02 04:10:58;;;;;;;1.40;0.70;;;12.00;99.90;;;;;;5072759;28;20914;-75
2022/10/02 04:13:43;;;;;;;0.30;0.30;;;12.00;99.90;;;;;;5072864;28;20427;-76
2022/10/02 04:16:24;;;;;;;0.40;0.40;;;12.00;99.90;;;;;;5073148;28;20435;-77
2022/10/02 04:19:02;;;;;;;0.32;0.32;;;12.00;99.90;;;;;;5073192;28;20431;-76
2022/10/02 04:21:35;;;;;;;1.63;0.70;;;12.00;99.90;;;;;;5072712;28;20424;-77
2022/10/02 04:24:08;;;;;;;0.83;0.53;;;12.00;99.90;;;;;;5072775;28;20882;-75
2022/10/02 04:26:46;;;;;;;0.40;0.40;;;12.10;99.90;;;;;;5073231;28;20427;-76
2022/10/02 04:29:19;;;;;;;0.38;0.38;;;12.10;99.90;;;;;;5073406;28;20481;-76
2022/10/02 04:31:52;;;;;;;0.40;0.40;;;12.00;99.90;;;;;;5072554;28;20461;-76
2022/10/02 04:34:19;;;;;;;0.60;0.60;;;12.00;99.90;;;;;;5052719;28;20874;-76
2022/10/02 04:36:58;;;;;;;0.85;0.60;;;12.00;99.90;;;;;;5052938;28;20425;-77
2022/10/02 04:39:37;;;;;;;0.88;0.57;;;12.00;99.90;;;;;;5065268;28;20484;-77
2022/10/02 04:42:14;;;;;;;0.57;0.45;;;12.00;99.90;;;;;;5072914;28;20493;-76
2022/10/02 04:45:25;;;;;;;1.15;0.43;;;12.00;99.90;;;;;;5072934;28;20435;-77
2022/10/02 04:47:57;;;;;;;0.75;0.45;;;12.00;99.90;;;;;;5059579;28;20431;-76
2022/10/02 04:50:44;;;;;;;0.32;0.32;;;12.00;99.90;;;;;;5072121;28;20467;-76
2022/10/02 04:53:36;;;;;;;3.70;0.65;;;12.00;99.90;;;;;;5071066;28;20789;-74
2022/10/02 04:56:21;;;;;;;1.70;0.50;;;12.00;99.90;;;;;;5072235;28;20427;-75
2022/10/02 04:58:57;;;;;;;0.30;0.30;;;12.00;99.90;;;;;;5072235;28;20493;-75
2022/10/02 05:01:39;;;;;;;0.23;0.23;;;12.00;99.90;;;;;;5072128;28;20428;-75
2022/10/02 05:04:31;;;;;;;0.40;0.40;;;12.00;99.90;;;;;;5072381;28;20484;-74
2022/10/02 05:07:07;;;;;;;1.13;0.50;;;12.00;99.90;;;;;;5071898;28;20898;-74
2022/10/02 05:09:43;;;;;;;1.08;0.50;;;12.00;99.90;;;;;;5072042;28;20431;-75
2022/10/02 05:12:33;;;;;;;1.40;0.90;;;11.90;99.90;;;;;;5071926;28;20435;-75
2022/10/02 05:15:22;;;;;;;0.40;0.40;;;11.90;99.90;;;;;;5072227;28;20427;-75
2022/10/02 05:18:40;;;;;;;1.20;0.37;;;11.90;99.90;;;;;;5071748;28;20427;-75
2022/10/02 05:21:27;;;;;;;2.78;0.40;;;11.90;99.90;;;;;;5030080;28;20925;-75
2022/10/02 05:24:29;;;;;;;0.20;0.20;;;11.90;99.90;;;;;;5029194;28;20431;-75
2022/10/02 05:27:19;;;;;;;0.50;0.50;;;11.90;99.90;;;;;;5029541;28;20434;-75
2022/10/02 05:30:06;;;;;;;0.40;0.40;;;11.90;99.90;;;;;;5029497;28;20423;-75
2022/10/02 05:33:17;;;;;;;0.90;0.70;;;11.90;99.90;;;;;;5029914;28;20423;-76
2022/10/02 05:36:38;;;;;;;0.93;0.47;;;12.00;99.90;;;;;;5029892;28;20500;-78
2022/10/02 05:39:17;;;;;;;0.63;0.63;;;11.90;99.90;;;;;;4970973;28;20432;-77
2022/10/02 05:42:26;;;;;;;0.77;0.40;;;12.00;99.90;;;;;;4964109;28;20461;-80
2022/10/02 05:45:01;;;;;;;0.47;0.47;;;11.90;99.90;;;;;;4951985;29;20861;-79
2022/10/02 05:47:33;;;;;;;0.70;0.70;;;11.90;99.90;;;;;;4954294;29;20485;-80
2022/10/02 05:50:13;;;;;;;0.50;0.43;;;12.00;99.90;;;;;;4952957;29;20583;-79
2022/10/02 05:52:56;;;;;;;0.35;0.35;;;12.00;99.90;;;;;;4953461;29;20429;-81
2022/10/02 05:55:38;;;;;;;0.80;0.35;;;12.00;99.90;;;;;;4953985;28;20438;-80
2022/10/02 05:58:30;;;;;;;0.60;0.60;;;12.00;99.90;;;;;;4972188;28;20519;-81
2022/10/02 06:01:27;;;;;;;0.40;0.40;;;12.00;99.90;;;;;;4927576;28;20448;-80
2022/10/02 06:03:54;;;;;;;1.30;0.50;;;11.90;99.90;;;;;;4971533;28;20444;-82
2022/10/02 06:06:33;;;;;;;0.40;0.40;;;12.00;99.90;;;;;;4971983;28;20432;-82
2022/10/02 06:09:07;;;;;;;1.80;0.60;;;11.90;99.90;;;;;;4987941;28;20456;-82
2022/10/02 06:11:46;;;;;;;0.70;0.50;;;12.00;99.90;;;;;;5072380;28;20892;-81
2022/10/02 06:14:15;;;;;;;0.40;0.35;;;12.00;99.90;;;;;;5072126;28;20507;-81
2022/10/02 06:16:49;;;;;;;1.00;0.30;;;11.90;99.90;;;;;;5072414;28;20996;-81
2022/10/02 06:19:29;;;;;;;0.30;0.20;;;11.90;99.90;;;;;;5072748;28;20428;-81
2022/10/02 06:22:02;;;;;;;0.40;0.30;;;12.00;99.90;;;;;;5072572;28;20786;-79
2022/10/02 06:24:37;;;;;;;0.50;0.20;;;12.00;99.90;;;;;;5072116;28;20454;-81
2022/10/02 06:27:30;;;;;;;0.20;0.20;;;12.00;99.90;;;;;;5071857;28;20914;-82
2022/10/02 06:30:04;;;;;;;0.80;0.50;;;12.00;99.90;;;;;;5069482;28;20466;-82
2022/10/02 06:32:54;;;;;;;0.20;0.20;;;12.00;99.90;;;;;;5071583;28;20428;-82
2022/10/02 06:35:51;;;;;;;0.20;0.20;;;12.00;99.90;;;;;;5071200;28;20430;-83
2022/10/02 06:38:47;;;;;;;0.30;0.30;;;12.00;99.90;;;;;;5067157;28;20427;-82
2022/10/02 06:41:40;;;;;;;0.45;0.45;;;12.00;99.90;;;;;;5069245;28;20493;-83
2022/10/02 06:44:16;;;;;;;0.22;0.22;;;12.00;99.90;;;;;;5068959;28;20473;-82
2022/10/02 06:47:01;;;;;;;0.25;0.25;;;12.00;99.90;;;;;;5071166;28;20510;-83
2022/10/02 06:50:00;;;;;;;2.33;0.20;;;12.10;99.90;;;;;;5069783;28;20463;-82
2022/10/02 06:52:43;;;;;;;0.25;0.25;;;12.10;99.90;;;;;;5070591;28;20427;-80
2022/10/02 06:55:31;;;;;;;0.35;0.20;;;12.20;99.90;;;;;;5073472;28;20453;-81
2022/10/02 06:58:20;;;;;;;0.10;0.10;;;12.10;99.90;;;;;;5070204;28;20743;-79
2022/10/02 07:01:05;;;;;;;0.20;0.20;;;12.20;99.90;;;;;;5071261;28;20439;-81
2022/10/02 07:03:41;;;;;;;0.30;0.30;;;12.20;99.90;;;;;;5070735;28;20470;-79
2022/10/02 07:06:25;;;;;;;0.30;0.30;;;12.20;99.90;;;;;;5071243;28;20790;-78
2022/10/02 07:08:52;;;;;;;0.50;0.40;;;12.20;99.90;;;;;;5071260;28;20964;-79
2022/10/02 07:11:31;;;;;;;0.50;0.20;;;12.20;99.90;;;;;;5071244;28;20435;-79
2022/10/02 07:14:06;;;;;;;0.28;0.28;;;12.30;99.90;;;;;;5070715;28;20480;-78
2022/10/02 07:16:57;;;;;;;1.30;0.40;;;12.30;99.90;;;;;;5072397;28;20457;-77
2022/10/02 07:19:47;;;;;;;0.20;0.20;;;12.30;99.90;;;;;;5074778;28;20473;-77
2022/10/02 07:22:29;;;;;;;0.20;0.20;;;12.30;99.90;;;;;;5066779;28;20435;-77
2022/10/02 07:25:35;;;;;;;0.17;0.17;;;12.30;99.90;;;;;;5074047;28;20921;-77
2022/10/02 07:28:11;;;;;;;0.20;0.20;;;12.30;99.90;;;;;;5074036;28;20442;-76
2022/10/02 07:30:53;;;;;;;0.30;0.30;;;12.40;99.90;;;;;;5072631;28;20462;-77
2022/10/02 07:33:50;;;;;;;0.20;0.20;;;12.40;99.90;;;;;;5073594;28;20432;-75
2022/10/02 07:36:36;;;;;;;0.10;0.10;;;12.40;99.90;;;;;;5073671;28;20431;-76
2022/10/02 07:39:24;;;;;;;0.30;0.30;;;12.40;99.90;;;;;;5073087;28;20432;-74
2022/10/02 07:41:58;;;;;;;0.10;0.10;;;12.30;99.90;;;;;;5071590;28;20431;-75
2022/10/02 07:44:48;;;;;;;0.80;0.50;;;12.40;99.90;;;;;;5072561;28;20506;-75
2022/10/02 07:47:51;;;;;;;1.48;0.30;;;12.40;99.90;;;;;;5072755;28;20439;-74
2022/10/02 07:50:33;;;;;;;0.30;0.30;;;12.30;99.90;;;;;;5072913;28;20485;-75
2022/10/02 07:53:30;;;;;;;0.20;0.20;;;12.40;99.90;;;;;;5072092;28;21316;-74
2022/10/02 07:55:59;;;;;;;0.20;0.20;;;12.40;99.90;;;;;;5072419;28;20431;-73
2022/10/02 07:58:45;;;;;;;0.20;0.20;;;12.50;99.90;;;;;;5072287;28;20557;-74
2022/10/02 08:01:21;;;;;;;0.20;0.20;;;12.40;99.90;;;;;;5071177;28;20434;-73
2022/10/02 08:03:55;;;;;;;0.37;0.37;;;12.40;99.90;;;;;;5072103;28;20432;-73
2022/10/02 08:06:23;;;;;;;0.20;0.20;;;12.50;99.90;;;;;;5072193;28;20423;-73
2022/10/02 08:09:32;;;;;;;0.15;0.15;;;12.50;99.90;;;;;;5072817;28;20419;-73
2022/10/02 08:12:08;;;;;;;1.70;0.30;;;12.50;99.90;;;;;;5072030;28;20427;-73
2022/10/02 08:14:44;;;;;;;0.40;0.35;;;12.50;99.90;;;;;;5071486;28;20427;-74
2022/10/02 08:17:34;;;;;;;0.32;0.32;;;12.50;99.90;;;;;;5072179;28;20427;-73
2022/10/02 08:20:12;;;;;;;0.23;0.23;;;12.60;99.90;;;;;;5071662;28;20470;-73
2022/10/02 08:22:52;;;;;;;0.10;0.10;;;12.60;99.90;;;;;;5072038;28;20420;-73
2022/10/02 08:25:24;;;;;;;5.10;0.30;;;12.70;99.90;;;;;;5071951;28;20842;-74
2022/10/02 08:28:24;;;;;;;0.30;0.30;;;12.80;99.90;;;;;;5071871;28;20794;-74
2022/10/02 08:30:51;;;;;;;0.30;0.30;;;12.80;99.90;;;;;;5071613;28;20431;-74
2022/10/02 08:33:20;;;;;;;0.50;0.50;;;12.90;99.90;;;;;;5069863;28;20518;-74
2022/10/02 08:35:53;;;;;;;0.20;0.20;;;12.90;99.90;;;;;;5071720;28;20427;-74
2022/10/02 08:38:39;;;;;;;0.20;0.20;;;13.00;99.90;;;;;;5071700;28;20427;-74
2022/10/02 08:41:35;;;;;;;0.20;0.20;;;13.00;99.90;;;;;;5071647;28;20505;-75
2022/10/02 08:44:20;;;;;;;0.90;0.43;;;13.00;99.90;;;;;;5071047;28;21113;-75
2022/10/02 08:47:18;;;;;;;0.30;0.20;;;13.00;99.90;;;;;;5071662;28;20434;-75
2022/10/02 08:50:03;;;;;;;0.30;0.30;;;13.10;99.90;;;;;;5071685;28;20455;-74
2022/10/02 08:52:36;;;;;;;0.50;0.40;;;13.00;99.90;;;;;;5071500;28;20531;-73
2022/10/02 08:55:28;;;;;;;0.20;0.20;;;13.00;99.90;;;;;;5069535;28;20878;-73
2022/10/02 08:58:10;;;;;;;0.20;0.20;;;12.90;99.90;;;;;;5071229;28;20431;-73
2022/10/02 09:01:14;;;;;;;0.50;0.30;;;12.80;99.90;;;;;;5071221;28;20431;-73
2022/10/02 09:04:21;;;;;;;0.30;0.30;;;12.70;99.90;;;;;;5070263;28;20495;-73
2022/10/02 09:07:26;;;;;;;0.20;0.20;;;12.80;99.90;;;;;;5070828;28;20893;-73
2022/10/02 09:10:12;;;;;;;0.20;0.20;;;12.70;99.90;;;;;;5071039;28;21087;-74
2022/10/02 09:13:11;;;;;;;1.00;0.20;;;12.80;99.90;;;;;;5071025;28;20472;-74
2022/10/02 09:16:07;;;;;;;0.10;0.10;;;12.80;99.90;;;;;;5070831;28;20897;-73
2022/10/02 09:18:59;;;;;;;0.20;0.20;;;12.80;99.90;;;;;;5056278;28;20440;-74
2022/10/02 09:21:49;;;;;;;0.35;0.35;;;12.80;99.90;;;;;;5050786;28;20425;-73
2022/10/02 09:24:28;;;;;;;0.15;0.15;;;12.80;99.90;;;;;;5049033;28;20437;-74
2022/10/02 09:27:20;;;;;;;0.38;0.38;;;12.90;99.90;;;;;;5050463;28;20436;-74
2022/10/02 09:30:15;;;;;;;0.30;0.20;;;12.90;99.90;;;;;;5050396;28;20860;-73
2022/10/02 09:33:15;;;;;;;0.30;0.20;;;12.90;99.90;;;;;;5050337;28;20441;-73
2022/10/02 09:36:05;;;;;;;1.10;0.28;;;12.80;99.90;;;;;;5050291;28;20425;-75
2022/10/02 09:39:09;;;;;;;0.10;0.10;;;12.80;99.90;;;;;;5050284;28;20489;-74
2022/10/02 09:42:14;;;;;;;0.30;0.30;;;12.80;99.90;;;;;;5050479;28;20437;-74
2022/10/02 09:45:20;;;;;;;1.40;0.20;;;12.80;99.90;;;;;;5050088;28;20453;-74
2022/10/02 09:48:26;;;;;;;0.17;0.17;;;12.80;99.90;;;;;;5011011;28;20436;-74
2022/10/02 09:51:15;;;;;;;0.10;0.10;;;12.80;99.90;;;;;;5051498;28;20460;-74
2022/10/02 09:54:13;;;;;;;0.73;0.30;;;12.90;99.90;;;;;;5050173;28;20425;-73
2022/10/02 09:57:18;;;;;;;0.20;0.20;;;12.80;99.90;;;;;;5049982;28;20460;-74
2022/10/02 10:00:15;;;;;;;0.13;0.13;;;12.80;99.90;;;;;;4952820;28;20531;-74
2022/10/02 10:03:15;;;;;;;0.10;0.10;;;12.80;99.90;;;;;;4968778;28;20435;-74
2022/10/02 10:06:27;;;;;;;0.10;0.10;;;12.80;99.90;;;;;;4969007;28;20515;-75
2022/10/02 10:09:04;;;;;;;0.10;0.10;;;12.80;99.90;;;;;;4969151;28;20440;-74
2022/10/02 10:11:49;;;;;;;0.10;0.10;;;12.80;99.90;;;;;;4952704;28;20523;-74
2022/10/02 10:15:11;;;;;;;0.10;0.10;;;12.80;99.90;;;;;;4968348;28;20494;-74
2022/10/02 10:18:17;;;;;;;0.10;0.10;;;12.70;99.90;;;;;;4926868;28;20427;-74
2022/10/02 10:20:58;;;;;;;0.30;0.30;;;12.70;99.90;;;;;;4968442;28;20479;-74
2022/10/02 10:23:52;;;;;;;0.10;0.10;;;12.70;99.90;;;;;;4967993;28;20440;-74
2022/10/02 10:26:46;;;;;;;0.10;0.10;;;12.70;99.90;;;;;;4968665;28;20478;-74
2022/10/02 10:29:25;;;;;;;0.20;0.20;;;12.80;99.90;;;;;;4968648;28;20966;-75
2022/10/02 10:32:13;;;;;;;1.10;0.20;;;12.90;99.90;;;;;;4968232;28;20436;-75
2022/10/02 10:35:05;;;;;;;0.10;0.10;;;13.10;99.90;;;;;;5031925;28;20487;-76
2022/10/02 10:41:30;;;;;;;0.10;0.10;;;13.60;99.90;;;;;;5058744;28;20438;-76
2022/10/02 10:44:35;;;;;;;0.10;0.10;;;13.50;99.90;;;;;;5069553;28;20474;-75
2022/10/02 10:47:23;;;;;;;0.17;0.17;;;13.50;99.90;;;;;;5069876;28;20466;-75
2022/10/02 10:50:15;;;;;;;0.10;0.10;;;13.50;99.90;;;;;;5069513;28;20897;-74
2022/10/02 10:53:15;;;;;;;0.50;0.17;;;13.50;99.90;;;;;;5072700;28;20902;-75
2022/10/02 10:56:24;;;;;;;0.80;0.50;;;13.40;99.90;;;;;;5073276;28;20885;-74
2022/10/02 10:59:29;;;;;;;0.10;0.10;;;13.40;99.90;;;;;;5073573;28;20812;-75
2022/10/02 11:02:14;;;;;;;0.10;0.10;;;13.50;99.90;;;;;;5073626;28;20848;-76
2022/10/02 11:04:51;;;;;;;0.83;0.17;;;13.50;99.90;;;;;;5073827;28;20457;-76
2022/10/02 11:07:44;;;;;;;0.30;0.20;;;13.50;99.90;;;;;;5075170;28;20522;-75
2022/10/02 11:10:42;;;;;;;0.28;0.28;;;13.50;99.90;;;;;;5074697;28;20431;-75
2022/10/02 11:13:40;;;;;;;0.10;0.10;;;13.50;99.90;;;;;;5073137;28;20985;-76
2022/10/02 11:16:29;;;;;;;0.10;0.10;;;13.50;99.90;;;;;;5073547;28;20427;-76
2022/10/02 11:19:23;;;;;;;0.10;0.10;;;13.60;99.90;;;;;;5073556;28;20496;-75
2022/10/02 11:22:09;;;;;;;0.10;0.10;;;13.60;99.90;;;;;;5072548;28;20511;-76
2022/10/02 11:25:13;;;;;;;0.10;0.10;;;13.60;99.90;;;;;;5073781;28;20538;-76
2022/10/02 11:27:52;;;;;;;0.10;0.10;;;13.60;99.90;;;;;;5072188;28;20484;-76
2022/10/02 11:30:57;;;;;;;0.10;0.10;;;13.70;99.90;;;;;;5073201;28;20427;-76
2022/10/02 11:33:59;;;;;;;0.30;0.28;;;13.60;99.90;;;;;;5070496;28;20446;-75
2022/10/02 11:37:04;;;;;;;0.20;0.20;;;13.70;99.90;;;;;;5071491;28;20431;-76
2022/10/02 11:39:49;;;;;;;0.00;0.00;;;13.60;99.90;;;;;;5073479;28;20423;-76
2022/10/02 11:42:38;;;;;;;0.00;0.00;;;13.60;99.90;;;;;;5053113;28;20429;-76
2022/10/02 11:45:18;;;;;;;0.10;0.10;;;13.60;99.90;;;;;;5052907;28;20441;-75
2022/10/02 11:48:22;;;;;;;0.10;0.10;;;13.70;99.90;;;;;;5051711;28;20429;-76
2022/10/02 11:51:20;;;;;;;0.00;0.00;;;13.70;99.90;;;;;;5052660;28;20487;-76
2022/10/02 11:54:24;;;;;;;0.05;0.05;;;13.70;99.90;;;;;;5052482;28;20433;-76
2022/10/02 11:57:00;;;;;;;0.10;0.10;;;13.80;99.90;;;;;;5073079;28;20806;-76
2022/10/02 11:59:52;;;;;;;0.10;0.10;;;13.80;99.90;;;;;;5072858;28;20836;-76
2022/10/02 12:02:24;;;;;;;0.10;0.10;;;13.90;99.90;;;;;;5070849;28;20463;-75
2022/10/02 12:05:12;;;;;;;0.10;0.10;;;14.00;99.90;;;;;;5072158;28;20458;-75
2022/10/02 12:07:57;;;;;;;0.70;0.10;;;14.10;99.90;;;;;;5072428;28;20790;-75
2022/10/02 12:10:26;;;;;;;0.10;0.10;;;14.00;99.90;;;;;;5072293;28;20437;-74
2022/10/02 12:13:14;;;;;;;0.10;0.10;;;13.90;99.90;;;;;;5072002;28;20876;-75
2022/10/02 12:15:41;;;;;;;0.20;0.20;;;13.90;99.90;;;;;;5070772;28;20435;-74
2022/10/02 12:18:30;;;;;;;0.10;0.10;;;13.90;99.90;;;;;;5072243;28;20427;-75
2022/10/02 12:27:51;;;;;;;0.10;0.10;;;14.00;99.90;;;;;;5072418;28;20427;-76
2022/10/02 12:30:21;;;;;;;0.10;0.10;;;14.10;99.90;;;;;;5071865;28;20771;-76
2022/10/02 12:33:07;;;;;;;0.10;0.10;;;14.30;99.90;;;;;;5071811;28;20428;-76
2022/10/02 12:36:04;;;;;;;0.10;0.10;;;14.30;99.90;;;;;;5071842;28;20952;-76
2022/10/02 12:38:37;;;;;;;0.10;0.10;;;14.30;99.90;;;;;;5070796;28;20459;-76
2022/10/02 12:41:22;;;;;;;0.10;0.10;;;14.20;99.90;;;;;;5071672;28;20600;-75
2022/10/02 12:44:15;;;;;;;0.20;0.20;;;14.20;99.90;;;;;;5072220;28;20427;-75
2022/10/02 12:47:23;;;;;;;0.10;0.10;;;14.20;99.90;;;;;;5073308;28;20481;-76
2022/10/02 12:50:11;;;;;;;0.10;0.10;;;14.40;99.90;;;;;;5045154;28;20759;-76
2022/10/02 12:53:00;;;;;;;0.10;0.10;;;14.60;99.90;;;;;;5071983;28;20518;-76
2022/10/02 12:56:26;;;;;;;0.10;0.10;;;14.70;99.90;;;;;;5072130;28;20440;-76
2022/10/02 12:59:26;;;;;;;0.10;0.10;;;14.70;99.90;;;;;;4974189;28;20444;-76
2022/10/02 13:02:37;;;;;;;0.10;0.10;;;14.50;99.90;;;;;;5071469;28;20433;-76
2022/10/02 13:05:46;;;;;;;0.10;0.10;;;14.30;99.90;;;;;;5071598;28;20427;-76
2022/10/02 13:08:23;;;;;;;0.10;0.10;;;14.30;99.90;;;;;;5072111;28;20485;-76
2022/10/02 13:11:05;;;;;;;0.10;0.10;;;14.40;99.90;;;;;;5072072;28;20538;-76
2022/10/02 13:13:37;;;;;;;0.10;0.10;;;14.40;99.90;;;;;;5071123;28;20423;-76
2022/10/02 13:16:10;;;;;;;0.10;0.10;;;14.50;99.90;;;;;;5071993;28;20440;-77
2022/10/02 13:19:15;;;;;;;0.10;0.10;;;14.60;99.90;;;;;;5070812;28;20551;-77
2022/10/02 13:22:13;;;;;;;0.10;0.10;;;14.60;99.90;;;;;;5070432;28;20432;-77
2022/10/02 13:24:55;;;;;;;0.10;0.10;;;14.50;99.90;;;;;;5071660;28;20431;-78
2022/10/02 13:27:50;;;;;;;0.10;0.10;;;14.70;99.90;;;;;;5071920;28;20945;-78
2022/10/02 13:30:22;;;;;;;0.10;0.10;;;14.90;99.90;;;;;;5071957;28;20524;-77
2022/10/02 13:33:29;;;;;;;0.10;0.10;;;15.10;99.90;;;;;;5071929;28;20496;-78
2022/10/02 13:36:17;;;;;;;0.10;0.10;;;15.10;99.90;;;;;;5070732;28;20423;-77
2022/10/02 13:39:29;;;;;;;0.10;0.10;;;15.00;99.90;;;;;;5072156;28;20423;-76
2022/10/02 13:42:16;;;;;;;0.30;0.30;;;15.00;99.90;;;;;;5071651;28;20435;-76
2022/10/02 13:44:52;;;;;;;0.10;0.10;;;14.80;99.90;;;;;;5071141;28;20515;-76
2022/10/02 13:47:38;;;;;;;0.10;0.10;;;14.60;99.90;;;;;;5071940;28;20431;-76
2022/10/02 13:50:17;;;;;;;0.10;0.10;;;14.50;99.90;;;;;;5072106;28;20517;-76
2022/10/02 13:53:21;;;;;;;0.10;0.10;;;14.40;99.90;;;;;;5070296;28;20433;-76
2022/10/02 13:56:09;;;;;;;0.10;0.10;;;14.40;99.90;;;;;;5071519;28;20461;-76
2022/10/02 13:59:03;;;;;;;0.10;0.10;;;14.40;99.90;;;;;;5071069;28;21163;-76
2022/10/02 14:01:32;;;;;;;0.10;0.10;;;14.20;99.90;;;;;;5064897;28;20943;-76
2022/10/02 14:04:32;;;;;;;0.10;0.10;;;14.10;99.90;;;;;;5071421;28;20890;-77
2022/10/02 14:07:08;;;;;;;0.22;0.22;;;14.10;99.90;;;;;;5071496;28;20480;-76
2022/10/02 14:10:05;;;;;;;0.10;0.10;;;14.00;99.90;;;;;;5071407;28;20511;-76
2022/10/02 14:12:58;;;;;;;0.40;0.20;;;14.00;99.90;;;;;;5071263;28;20485;-76
2022/10/02 14:15:40;;;;;;;0.28;0.28;;;14.00;99.90;;;;;;5071308;28;20906;-77
2022/10/02 14:18:25;;;;;;;0.15;0.15;;;13.90;99.90;;;;;;5071003;28;20431;-77
2022/10/02 14:20:56;;;;;;;0.20;0.20;;;13.90;99.90;;;;;;5071057;28;20971;-77
2022/10/02 14:23:50;;;;;;;0.20;0.20;;;13.90;99.90;;;;;;5070184;28;20504;-79
2022/10/02 14:26:29;;;;;;;0.10;0.10;;;13.90;99.90;;;;;;5061976;28;20477;-78
2022/10/02 14:29:37;;;;;;;0.15;0.10;;;13.80;99.90;;;;;;5075259;28;20910;-76
2022/10/02 14:32:37;;;;;;;0.95;0.30;;;13.80;99.90;;;;;;5013311;28;20475;-77